createdAt,value
2023-02-21T00:02:40.561Z,9.95
2023-02-21T00:05:26.830Z,9.97
2023-02-21T00:08:11.957Z,9.95
2023-02-21T00:10:57.016Z,9.96
2023-02-21T00:13:42.259Z,9.94
2023-02-21T00:16:27.317Z,9.91
2023-02-21T00:19:12.990Z,9.91
2023-02-21T00:21:58.311Z,9.87
2023-02-21T00:24:43.738Z,9.83
2023-02-21T00:27:28.934Z,9.82
2023-02-21T00:30:14.622Z,9.79
2023-02-21T00:33:00.080Z,9.78
2023-02-21T00:35:45.464Z,9.76
2023-02-21T00:38:30.679Z,9.75
2023-02-21T00:41:16.197Z,9.75
2023-02-21T00:44:02.918Z,9.74
2023-02-21T00:46:48.270Z,9.77
2023-02-21T00:49:33.421Z,9.75
2023-02-21T00:52:20.684Z,9.76
2023-02-21T00:55:06.088Z,9.76
2023-02-21T00:57:52.508Z,9.76
2023-02-21T01:00:40.670Z,9.77
2023-02-21T01:03:26.548Z,9.76
2023-02-21T01:06:13.705Z,9.77
2023-02-21T01:09:03.430Z,9.81
2023-02-21T01:11:49.197Z,9.78
2023-02-21T01:14:35.006Z,9.77
2023-02-21T01:17:20.696Z,9.81
2023-02-21T01:20:05.958Z,9.83
2023-02-21T01:22:51.029Z,9.87
2023-02-21T01:25:36.371Z,9.82
2023-02-21T01:28:21.146Z,9.81
2023-02-21T01:31:06.385Z,9.84
2023-02-21T01:33:58.958Z,9.85
2023-02-21T01:36:44.344Z,9.81
2023-02-21T01:39:29.465Z,9.84
2023-02-21T01:42:14.468Z,9.83
2023-02-21T01:45:01.457Z,9.83
2023-02-21T01:47:46.793Z,9.86
2023-02-21T01:50:42.203Z,9.84
2023-02-21T01:53:32.582Z,9.78
2023-02-21T01:56:19.254Z,9.82
2023-02-21T01:59:05.604Z,9.84
2023-02-21T02:01:56.470Z,9.84
2023-02-21T02:04:41.901Z,9.81
2023-02-21T02:07:28.552Z,9.83
2023-02-21T02:10:14.414Z,9.84
2023-02-21T02:12:59.968Z,9.88
2023-02-21T02:15:35.299Z,9.87
2023-02-21T02:18:21.150Z,9.87
2023-02-21T02:21:11.982Z,9.88
2023-02-21T02:23:57.841Z,9.90
2023-02-21T02:26:52.282Z,9.88
2023-02-21T02:29:38.568Z,9.94
2023-02-21T02:32:33.909Z,9.93
2023-02-21T02:35:17.739Z,9.92
2023-02-21T02:38:23.387Z,9.96
2023-02-21T02:41:18.642Z,9.97
2023-02-21T02:43:51.646Z,9.98
2023-02-21T02:46:28.195Z,9.97
2023-02-21T02:49:06.170Z,10.01
2023-02-21T02:51:34.409Z,9.96
2023-02-21T02:54:01.208Z,9.98
2023-02-21T02:56:29.288Z,10.00
2023-02-21T02:59:03.543Z,10.01
2023-02-21T03:01:48.933Z,9.99
2023-02-21T03:04:49.970Z,9.97
2023-02-21T03:07:43.712Z,9.98
2023-02-21T03:10:34.625Z,9.99
2023-02-21T03:13:18.896Z,10.03
2023-02-21T03:15:52.966Z,10.03
2023-02-21T03:18:28.467Z,10.01
2023-02-21T03:20:57.802Z,10.01
2023-02-21T03:23:27.165Z,9.97
2023-02-21T03:25:55.708Z,10.03
2023-02-21T03:28:22.447Z,9.98
2023-02-21T03:30:51.673Z,10.04
2023-02-21T03:33:18.377Z,10.03
2023-02-21T03:35:45.237Z,10.01
2023-02-21T03:38:11.934Z,10.02
2023-02-21T03:40:38.612Z,10.04
2023-02-21T03:43:07.407Z,10.09
2023-02-21T03:45:35.278Z,10.10
2023-02-21T03:48:02.123Z,10.07
2023-02-21T03:50:28.636Z,10.05
2023-02-21T03:52:55.273Z,10.12
2023-02-21T03:55:22.354Z,10.07
2023-02-21T03:57:49.467Z,10.12
2023-02-21T04:00:16.285Z,10.08
2023-02-21T04:02:43.367Z,10.11
2023-02-21T04:05:09.905Z,10.09
2023-02-21T04:07:36.402Z,10.13
2023-02-21T04:10:03.199Z,10.17
2023-02-21T04:12:30.461Z,10.15
2023-02-21T04:14:58.625Z,10.12
2023-02-21T04:17:25.458Z,10.10
2023-02-21T04:19:52.371Z,10.10
2023-02-21T04:22:18.877Z,10.09
2023-02-21T04:24:45.374Z,10.10
2023-02-21T04:27:11.783Z,10.09
2023-02-21T04:29:38.263Z,10.11
2023-02-21T04:32:05.068Z,10.14
2023-02-21T04:34:31.669Z,10.14
2023-02-21T04:36:58.151Z,10.10
2023-02-21T04:39:24.806Z,10.07
2023-02-21T04:41:51.298Z,10.13
2023-02-21T04:44:18.289Z,10.07
2023-02-21T04:46:44.761Z,10.09
2023-02-21T04:49:13.063Z,10.11
2023-02-21T04:51:39.607Z,10.16
2023-02-21T04:54:07.787Z,10.13
2023-02-21T04:56:34.565Z,10.17
2023-02-21T04:59:01.423Z,10.14
2023-02-21T05:01:30.680Z,10.13
2023-02-21T05:03:58.731Z,10.16
2023-02-21T05:06:26.610Z,10.14
2023-02-21T05:08:53.413Z,10.16
2023-02-21T05:11:21.313Z,10.15
2023-02-21T05:13:48.015Z,10.15
2023-02-21T05:16:14.621Z,10.11
2023-02-21T05:18:45.782Z,10.15
2023-02-21T05:21:13.671Z,10.11
2023-02-21T05:23:41.202Z,10.10
2023-02-21T05:26:10.601Z,10.12
2023-02-21T05:28:38.342Z,10.14
2023-02-21T05:31:05.626Z,10.10
2023-02-21T05:33:32.794Z,10.12
2023-02-21T05:35:59.348Z,10.14
2023-02-21T05:38:27.141Z,10.14
2023-02-21T05:40:53.935Z,10.14
2023-02-21T05:43:20.867Z,10.17
2023-02-21T05:45:47.470Z,10.18
2023-02-21T05:48:14.242Z,10.19
2023-02-21T05:50:40.760Z,10.20
2023-02-21T05:53:09.828Z,10.19
2023-02-21T05:55:37.044Z,10.18
2023-02-21T05:58:03.584Z,10.17
2023-02-21T06:00:30.357Z,10.16
2023-02-21T06:02:57.218Z,10.19
2023-02-21T06:05:23.856Z,10.19
2023-02-21T06:07:50.431Z,10.20
2023-02-21T06:10:17.754Z,10.21
2023-02-21T06:12:44.367Z,10.22
2023-02-21T06:15:12.771Z,10.26
2023-02-21T06:17:40.067Z,10.29
2023-02-21T06:20:08.649Z,10.20
2023-02-21T06:22:35.122Z,10.20
2023-02-21T06:25:01.720Z,10.26
2023-02-21T06:27:28.264Z,10.27
2023-02-21T06:29:54.771Z,10.28
2023-02-21T06:32:21.401Z,10.31
2023-02-21T06:34:47.936Z,10.28
2023-02-21T06:37:14.450Z,10.35
2023-02-21T06:39:41.115Z,10.29
2023-02-21T06:42:07.549Z,10.30
2023-02-21T06:44:34.223Z,10.31
2023-02-21T06:47:00.822Z,10.26
2023-02-21T06:49:27.272Z,10.30
2023-02-21T06:51:53.772Z,10.31
2023-02-21T06:54:20.425Z,10.32
2023-02-21T06:56:47.339Z,10.33
2023-02-21T06:59:13.877Z,10.31
2023-02-21T07:01:40.381Z,10.30
2023-02-21T07:04:07.528Z,10.31
2023-02-21T07:06:34.136Z,10.31
2023-02-21T07:09:00.623Z,10.35
2023-02-21T07:11:28.140Z,10.35
2023-02-21T07:13:56.767Z,10.38
2023-02-21T07:16:23.626Z,10.37
2023-02-21T07:18:50.189Z,10.40
2023-02-21T07:21:17.809Z,10.47
2023-02-21T07:23:45.043Z,10.50
2023-02-21T07:26:12.135Z,10.53
2023-02-21T07:28:39.008Z,10.49
2023-02-21T07:31:05.598Z,10.49
2023-02-21T07:33:32.232Z,10.46
2023-02-21T07:35:58.734Z,10.47
2023-02-21T07:38:27.742Z,10.43
2023-02-21T07:40:55.853Z,10.48
2023-02-21T07:43:22.416Z,10.42
2023-02-21T07:45:48.890Z,10.43
2023-02-21T07:48:15.541Z,10.41
2023-02-21T07:50:42.627Z,10.42
2023-02-21T07:53:11.191Z,10.42
2023-02-21T07:55:38.018Z,10.44
2023-02-21T07:58:05.119Z,10.40
2023-02-21T08:00:32.242Z,10.39
2023-02-21T08:02:59.092Z,10.36
2023-02-21T08:05:25.701Z,10.41
2023-02-21T08:07:52.389Z,10.42
2023-02-21T08:10:22.178Z,10.44
2023-02-21T08:12:49.206Z,10.45
2023-02-21T08:15:15.766Z,10.39
2023-02-21T08:17:42.470Z,10.37
2023-02-21T08:20:09.422Z,10.39
2023-02-21T08:22:39.435Z,10.45
2023-02-21T08:25:06.220Z,10.35
2023-02-21T08:27:32.708Z,10.38
2023-02-21T08:29:59.175Z,10.33
2023-02-21T08:32:26.549Z,10.35
2023-02-21T08:34:53.045Z,10.37
2023-02-21T08:37:20.193Z,10.35
2023-02-21T08:39:48.080Z,10.32
2023-02-21T08:42:14.874Z,10.40
2023-02-21T08:44:44.375Z,10.40
2023-02-21T08:47:11.795Z,10.43
2023-02-21T08:49:40.213Z,10.40
2023-02-21T08:52:07.585Z,10.42
2023-02-21T08:54:34.580Z,10.49
2023-02-21T08:57:01.308Z,10.50
2023-02-21T08:59:30.371Z,10.55
2023-02-21T09:01:56.875Z,10.57
2023-02-21T09:04:24.716Z,10.61
2023-02-21T09:06:51.384Z,10.71
2023-02-21T09:09:18.014Z,10.75
2023-02-21T09:11:47.142Z,10.84
2023-02-21T09:14:14.121Z,10.84
2023-02-21T09:16:41.870Z,10.91
2023-02-21T09:19:08.861Z,10.90
2023-02-21T09:21:35.979Z,10.95
2023-02-21T09:24:05.796Z,10.98
2023-02-21T09:26:32.234Z,11.04
2023-02-21T09:28:58.869Z,11.12
2023-02-21T09:31:25.675Z,11.11
2023-02-21T09:33:52.180Z,11.17
2023-02-21T09:36:24.096Z,11.15
2023-02-21T09:38:53.379Z,11.16
2023-02-21T09:41:20.289Z,11.12
2023-02-21T09:43:49.123Z,11.15
2023-02-21T09:46:34.093Z,11.08
2023-02-21T09:49:02.113Z,11.14
2023-02-21T09:51:28.597Z,11.17
2023-02-21T09:53:56.589Z,11.21
2023-02-21T09:56:39.323Z,11.20
2023-02-21T09:59:13.134Z,11.21
2023-02-21T10:01:51.821Z,11.25
2023-02-21T10:04:56.104Z,11.24
2023-02-21T10:07:32.036Z,11.32
2023-02-21T10:10:22.154Z,11.34
2023-02-21T10:13:14.672Z,11.33
2023-02-21T10:16:00.296Z,11.42
2023-02-21T10:18:56.208Z,11.53
2023-02-21T10:21:26.778Z,11.50
2023-02-21T10:23:57.750Z,11.45
2023-02-21T10:26:29.139Z,11.49
2023-02-21T10:28:57.586Z,11.48
2023-02-21T10:31:31.492Z,11.50
2023-02-21T10:33:59.927Z,11.41
2023-02-21T10:36:27.264Z,11.44
2023-02-21T10:39:07.457Z,11.54
2023-02-21T10:41:37.434Z,11.54
2023-02-21T10:44:22.297Z,11.49
2023-02-21T10:46:58.249Z,11.46
2023-02-21T10:49:29.543Z,11.48
2023-02-21T10:52:08.486Z,11.49
2023-02-21T10:54:35.524Z,11.51
2023-02-21T10:57:04.467Z,11.57
2023-02-21T10:59:34.331Z,11.54
2023-02-21T11:02:03.165Z,11.54
2023-02-21T11:04:38.584Z,11.56
2023-02-21T11:07:09.069Z,11.57
2023-02-21T11:09:36.535Z,11.60
2023-02-21T11:12:11.405Z,11.52
2023-02-21T11:14:37.957Z,11.42
2023-02-21T11:17:15.961Z,11.49
2023-02-21T11:19:48.784Z,11.53
2023-02-21T11:22:16.986Z,11.54
2023-02-21T11:24:58.123Z,11.53
2023-02-21T11:27:25.394Z,11.58
2023-02-21T11:29:53.002Z,11.54
2023-02-21T11:32:25.301Z,11.48
2023-02-21T11:34:51.892Z,11.56
2023-02-21T11:37:18.990Z,11.51
2023-02-21T11:39:50.950Z,11.48
2023-02-21T11:42:32.842Z,11.62
2023-02-21T11:45:14.511Z,11.54
2023-02-21T11:47:48.682Z,11.50
2023-02-21T11:50:26.241Z,11.51
2023-02-21T11:52:59.914Z,11.55
2023-02-21T11:55:26.804Z,11.43
2023-02-21T11:58:15.479Z,11.47
2023-02-21T12:01:05.654Z,11.43
2023-02-21T12:03:50.987Z,11.37
2023-02-21T12:06:44.121Z,11.31
2023-02-21T12:09:19.808Z,11.30
2023-02-21T12:11:54.710Z,11.32
2023-02-21T12:14:52.366Z,11.33
2023-02-21T12:17:37.948Z,11.31
2023-02-21T12:20:29.670Z,11.21
2023-02-21T12:23:09.317Z,11.31
2023-02-21T12:25:58.316Z,11.34
2023-02-21T12:28:52.490Z,11.59
2023-02-21T12:31:28.075Z,11.56
2023-02-21T12:34:22.394Z,11.64
2023-02-21T12:37:02.584Z,11.73
2023-02-21T12:39:45.178Z,11.67
2023-02-21T12:42:24.169Z,11.60
2023-02-21T12:45:16.979Z,11.60
2023-02-21T12:48:21.994Z,11.67
2023-02-21T12:50:54.756Z,11.77
2023-02-21T12:53:41.646Z,11.80
2023-02-21T12:56:21.031Z,11.71
2023-02-21T12:58:59.552Z,11.78
2023-02-21T13:01:50.074Z,11.88
2023-02-21T13:04:37.144Z,11.96
2023-02-21T13:07:11.220Z,12.17
2023-02-21T13:09:42.962Z,12.34
2023-02-21T13:12:25.909Z,12.38
2023-02-21T13:14:56.523Z,12.08
2023-02-21T13:17:23.403Z,12.10
2023-02-21T13:19:54.919Z,12.06
2023-02-21T13:22:58.983Z,11.99
2023-02-21T13:26:24.046Z,11.86
2023-02-21T13:28:54.480Z,11.76
2023-02-21T13:31:24.759Z,11.70
2023-02-21T13:33:53.726Z,11.71
2023-02-21T13:36:38.502Z,11.73
2023-02-21T13:39:21.889Z,11.60
2023-02-21T13:41:55.814Z,11.55
2023-02-21T13:44:36.594Z,11.60
2023-02-21T13:47:10.371Z,11.50
2023-02-21T13:49:50.552Z,11.55
2023-02-21T13:52:20.122Z,11.59
2023-02-21T13:55:21.190Z,11.63
2023-02-21T13:58:00.504Z,11.57
2023-02-21T14:00:27.585Z,11.62
2023-02-21T14:03:05.596Z,11.62
2023-02-21T14:05:47.665Z,11.59
2023-02-21T14:08:35.716Z,11.66
2023-02-21T14:11:05.309Z,11.63
2023-02-21T14:13:39.362Z,11.74
2023-02-21T14:16:17.664Z,11.67
2023-02-21T14:19:01.565Z,11.81
2023-02-21T14:21:41.901Z,11.78
2023-02-21T14:24:27.655Z,11.77
2023-02-21T14:26:54.066Z,11.79
2023-02-21T14:29:45.537Z,11.68
2023-02-21T14:32:12.299Z,11.65
2023-02-21T14:34:47.719Z,11.70
2023-02-21T14:37:45.258Z,11.65
2023-02-21T14:40:14.777Z,11.58
2023-02-21T14:43:02.067Z,11.63
2023-02-21T14:45:46.864Z,11.68
2023-02-21T14:48:32.146Z,11.72
2023-02-21T14:51:29.437Z,11.72
2023-02-21T14:54:00.325Z,11.71
2023-02-21T14:56:45.969Z,11.68
2023-02-21T14:59:31.125Z,11.66
2023-02-21T15:02:10.986Z,11.67
2023-02-21T15:04:42.744Z,11.66
2023-02-21T15:07:18.768Z,11.61
2023-02-21T15:09:46.474Z,11.63
2023-02-21T15:12:17.582Z,11.56
2023-02-21T15:14:50.568Z,11.53
2023-02-21T15:17:21.425Z,11.54
2023-02-21T15:20:01.916Z,11.48
2023-02-21T15:22:28.441Z,11.46
2023-02-21T15:25:11.039Z,11.51
2023-02-21T15:27:43.684Z,11.49
2023-02-21T15:30:22.594Z,11.42
2023-02-21T15:33:30.813Z,11.40
2023-02-21T15:36:01.053Z,11.42
2023-02-21T15:38:33.440Z,11.40
2023-02-21T15:41:07.578Z,11.43
2023-02-21T15:43:43.440Z,11.40
2023-02-21T15:46:14.685Z,11.35
2023-02-21T15:48:41.283Z,11.32
2023-02-21T15:51:09.214Z,11.32
2023-02-21T15:53:35.891Z,11.31
2023-02-21T15:56:35.232Z,11.27
2023-02-21T15:59:19.220Z,11.33
2023-02-21T16:01:45.846Z,11.34
2023-02-21T16:04:20.956Z,11.27
2023-02-21T16:06:54.182Z,11.22
2023-02-21T16:09:25.509Z,11.19
2023-02-21T16:12:03.454Z,11.23
2023-02-21T16:14:45.931Z,11.22
2023-02-21T16:17:15.208Z,11.27
2023-02-21T16:19:45.168Z,11.20
2023-02-21T16:22:21.549Z,11.22
2023-02-21T16:24:48.048Z,11.17
2023-02-21T16:27:16.848Z,11.17
2023-02-21T16:29:43.434Z,11.15
2023-02-21T16:32:18.774Z,11.15
2023-02-21T16:34:45.861Z,11.13
2023-02-21T16:37:14.057Z,11.11
2023-02-21T16:39:41.320Z,11.13
2023-02-21T16:42:07.918Z,11.13
2023-02-21T16:44:34.445Z,11.08
2023-02-21T16:47:00.985Z,11.11
2023-02-21T16:49:27.421Z,11.12
2023-02-21T16:51:54.004Z,11.12
2023-02-21T16:54:20.681Z,11.08
2023-02-21T16:56:49.098Z,11.05
2023-02-21T16:59:18.786Z,11.08
2023-02-21T17:01:45.880Z,11.02
2023-02-21T17:04:18.187Z,10.99
2023-02-21T17:06:47.541Z,10.96
2023-02-21T17:09:20.442Z,10.93
2023-02-21T17:11:47.280Z,10.94
2023-02-21T17:14:14.747Z,10.96
2023-02-21T17:16:44.891Z,11.01
2023-02-21T17:19:16.185Z,11.00
2023-02-21T17:21:43.860Z,10.99
2023-02-21T17:24:11.965Z,11.00
2023-02-21T17:26:38.832Z,10.97
2023-02-21T17:29:05.866Z,10.92
2023-02-21T17:31:32.535Z,10.92
2023-02-21T17:33:59.136Z,10.91
2023-02-21T17:36:27.196Z,10.94
2023-02-21T17:38:54.184Z,10.97
2023-02-21T17:41:21.310Z,10.90
2023-02-21T17:43:47.956Z,10.94
2023-02-21T17:46:16.462Z,10.88
2023-02-21T17:48:44.787Z,10.91
2023-02-21T17:51:21.547Z,10.87
2023-02-21T17:53:48.729Z,10.90
2023-02-21T17:56:19.868Z,10.89
2023-02-21T17:58:46.560Z,10.88
2023-02-21T18:01:18.649Z,10.86
2023-02-21T18:03:47.351Z,10.84
2023-02-21T18:06:15.096Z,10.80
2023-02-21T18:08:44.734Z,10.76
2023-02-21T18:11:13.210Z,10.77
2023-02-21T18:13:39.955Z,10.77
2023-02-21T18:16:06.531Z,10.77
2023-02-21T18:18:33.938Z,10.81
2023-02-21T18:21:02.438Z,10.83
2023-02-21T18:23:30.501Z,10.74
2023-02-21T18:25:57.773Z,10.74
2023-02-21T18:28:24.904Z,10.69
2023-02-21T18:30:53.662Z,10.69
2023-02-21T18:33:22.010Z,10.69
2023-02-21T18:35:48.780Z,10.70
2023-02-21T18:38:16.575Z,10.69
2023-02-21T18:40:46.009Z,10.67
2023-02-21T18:43:27.341Z,10.75
2023-02-21T18:45:54.955Z,10.69
2023-02-21T18:48:22.434Z,10.69
2023-02-21T18:50:49.275Z,10.70
2023-02-21T18:53:16.357Z,10.71
2023-02-21T18:55:42.870Z,10.71
2023-02-21T18:58:09.677Z,10.68
2023-02-21T19:00:37.009Z,10.62
2023-02-21T19:03:06.200Z,10.58
2023-02-21T19:05:33.668Z,10.62
2023-02-21T19:08:00.416Z,10.61
2023-02-21T19:10:28.633Z,10.58
2023-02-21T19:12:55.547Z,10.52
2023-02-21T19:15:22.057Z,10.53
2023-02-21T19:17:49.508Z,10.58
2023-02-21T19:20:19.258Z,10.49
2023-02-21T19:22:46.101Z,10.58
2023-02-21T19:25:13.096Z,10.52
2023-02-21T19:27:39.478Z,10.53
2023-02-21T19:30:07.812Z,10.47
2023-02-21T19:32:36.467Z,10.56
2023-02-21T19:35:04.490Z,10.59
2023-02-21T19:37:31.557Z,10.49
2023-02-21T19:39:58.290Z,10.44
2023-02-21T19:42:24.829Z,10.44
2023-02-21T19:44:51.415Z,10.48
2023-02-21T19:47:17.882Z,10.47
2023-02-21T19:49:46.026Z,10.45
2023-02-21T19:52:12.593Z,10.46
2023-02-21T19:54:39.132Z,10.43
2023-02-21T19:57:05.623Z,10.42
2023-02-21T19:59:33.934Z,10.37
2023-02-21T20:02:00.889Z,10.44
2023-02-21T20:04:28.744Z,10.46
2023-02-21T20:06:58.827Z,10.40
2023-02-21T20:09:25.729Z,10.41
2023-02-21T20:11:52.303Z,10.37
2023-02-21T20:14:18.882Z,10.35
2023-02-21T20:16:46.608Z,10.30
2023-02-21T20:19:13.745Z,10.32
2023-02-21T20:21:40.463Z,10.32
2023-02-21T20:24:10.935Z,10.32
2023-02-21T20:26:38.153Z,10.30
2023-02-21T20:29:05.755Z,10.29
2023-02-21T20:31:33.700Z,10.29
2023-02-21T20:34:03.053Z,10.24
2023-02-21T20:36:35.240Z,10.15
2023-02-21T20:39:02.619Z,10.16
2023-02-21T20:41:33.451Z,10.15
2023-02-21T20:44:00.150Z,10.15
2023-02-21T20:46:28.340Z,10.16
2023-02-21T20:48:58.460Z,10.16
2023-02-21T20:51:34.601Z,10.13
2023-02-21T20:54:01.711Z,10.17
2023-02-21T20:56:31.852Z,10.16
2023-02-21T20:58:58.370Z,10.15
2023-02-21T21:01:25.681Z,10.08
2023-02-21T21:03:52.656Z,10.11
2023-02-21T21:06:19.131Z,10.13
2023-02-21T21:08:45.726Z,10.06
2023-02-21T21:11:13.026Z,10.05
2023-02-21T21:13:39.656Z,10.05
2023-02-21T21:16:09.877Z,10.05
2023-02-21T21:18:36.429Z,10.03
2023-02-21T21:21:03.081Z,10.05
2023-02-21T21:23:29.489Z,10.02
2023-02-21T21:25:56.809Z,10.01
2023-02-21T21:28:23.348Z,10.03
2023-02-21T21:30:49.839Z,10.05
2023-02-21T21:33:19.476Z,10.03
2023-02-21T21:35:46.078Z,10.02
2023-02-21T21:38:15.051Z,9.98
2023-02-21T21:40:47.800Z,10.01
2023-02-21T21:43:15.246Z,9.98
2023-02-21T21:45:44.495Z,9.96
2023-02-21T21:48:11.090Z,9.94
2023-02-21T21:50:37.561Z,9.92
2023-02-21T21:53:04.130Z,9.89
2023-02-21T21:55:30.678Z,9.85
2023-02-21T21:57:58.627Z,9.85
2023-02-21T22:00:27.242Z,9.88
2023-02-21T22:02:59.080Z,9.82
2023-02-21T22:05:32.541Z,9.77
2023-02-21T22:07:59.672Z,9.71
2023-02-21T22:10:27.141Z,9.63
2023-02-21T22:12:56.539Z,9.60
2023-02-21T22:15:26.481Z,9.60
2023-02-21T22:17:54.218Z,9.59
2023-02-21T22:20:28.330Z,9.57
2023-02-21T22:22:58.616Z,9.55
2023-02-21T22:25:27.625Z,9.58
2023-02-21T22:27:54.487Z,9.57
2023-02-21T22:30:21.844Z,9.59
2023-02-21T22:32:48.943Z,9.56
2023-02-21T22:35:20.399Z,9.64
2023-02-21T22:37:55.568Z,9.63
2023-02-21T22:40:24.615Z,9.63
2023-02-21T22:42:52.524Z,9.62
2023-02-21T22:45:21.884Z,9.57
2023-02-21T22:47:49.501Z,9.55
2023-02-21T22:50:20.331Z,9.52
2023-02-21T22:52:58.091Z,9.54
2023-02-21T22:55:26.273Z,9.52
2023-02-21T22:57:54.590Z,9.59
2023-02-21T23:00:27.124Z,9.59
2023-02-21T23:02:53.720Z,9.57
2023-02-21T23:05:22.392Z,9.56
2023-02-21T23:07:51.222Z,9.59
2023-02-21T23:10:23.507Z,9.55
2023-02-21T23:12:52.155Z,9.49
2023-02-21T23:15:19.402Z,9.49
2023-02-21T23:17:47.913Z,9.44
2023-02-21T23:20:26.661Z,9.56
2023-02-21T23:22:54.812Z,9.60
2023-02-21T23:25:25.452Z,9.52
2023-02-21T23:27:57.579Z,9.51
2023-02-21T23:30:36.301Z,9.53
2023-02-21T23:33:03.179Z,9.53
2023-02-21T23:35:29.628Z,9.53
2023-02-21T23:38:00.018Z,9.46
2023-02-21T23:40:29.867Z,9.47
2023-02-21T23:42:56.626Z,9.43
2023-02-21T23:45:26.304Z,9.37
2023-02-21T23:47:54.931Z,9.30
2023-02-21T23:50:33.036Z,9.28
2023-02-21T23:52:59.767Z,9.13
2023-02-21T23:55:28.859Z,9.11
2023-02-21T23:58:03.288Z,9.02
